Williamstown, West Virginia
Current Conditions -  °F | °C
As of 12:53 PM on Wednesday 28 Jan 2015 (Local Time) from KPKB Reporting Station
Clear Clear  
Wind Chill: -3°   Ceiling: Unl
Heat Index: -3°   Visibility: 10mi
Dew Point: -11°   Wind: 0mph
Humidity: 58%   Direction: NA
Pressure: 30.38"   Gusts: NA
Location:  39.4°N, 81.45°W
Report Text: KPKB 281753Z 00000KT 10SM CLR M03/M11 A3038 RMK AO2 SLP301 60000 T10331106 11033 21089 58009
Loading
Personal Weather Stations






























Interactive Weather Map New forecast layout! Learn more

10-Day Weather Forecast

Advertisements
Track Severe Weather on mobile